Airfield :
LOGIN :

Register | Disclaimer

   EN    FR    IT 

 










Legend :    VFR   Marginal VFR   IFR   Intensive IFR   Very Intensive IFR
Visi :
Ceiling :
>= 8 km
>= 3000ft
5 to 8 km
1000 to 3000 ft
1500m to 5 km
500 to 1000 ft
800 to 1500m
200 to 500 ft
< 800m
< 200 ft
Symbols :   Thunderstorms  Fog  Heavy snow  Heavy precipitations  Wind > 20 kt
SIGMETs :     Misc.  Thunderstorms  Icing  Turbulence  Mountain Waves  Volcanic Ashes






- Airport Elevation : 522 ft
- IATA code : CRV


LIBC - Santa Anna - Crotone

CURRENT METAR :
  • 171750Z 25013KT CAVOK 22/13 Q1010

EXPIRED METARs :
  • 171650Z 25016KT CAVOK 24/14 Q1010
  • 171550Z 25015KT 9999 SCT065 23/14 Q1010

TAF TAF LIBC
Valid from the 17 at 12:00 until the 18 at 12:00 UTC


171100Z 1712/1812 27015KT CAVOK
TEMPO 1712/1718 27015G25KT
BECMG 1801/1803 VRB05KT
BECMG 1804/1807 15010KT



MET'MAP, your aeronautical weather chart ! - Copyright ORBIFLY December 2007 - Disclaimer

ORBIFLY MET'MAP TEAM :

Programming & Development : Alexandra Zaïnal
Concept & original design : Baudouin d'Aumeries
Assistance for programming : Marc-Olivier Méhu
Technical & hardware support : Manuel Goepfert

Contact : metmap@orbifly.com




SOURCES & CREDITS :

   NOAA